Offutt Air Force Base
KOFF : now visible

Airfield :











YOU CAN JOIN US ON...

 
LOGIN :

Register | Disclaimer

   EN    FR    IT 

 









Legend :    VFR   Marginal VFR   IFR   Intensive IFR   Very Intensive IFR
Visi :
Ceiling :
>= 8 km
>= 3000ft
5 to 8 km
1000 to 3000 ft
1500m to 5 km
500 to 1000 ft
800 to 1500m
200 to 500 ft
< 800m
< 200 ft
Symbols :   Thunderstorms  Fog  Heavy snow  Heavy precipitations  Wind > 20 kt






- Airport Elevation : 1052 ft


KOFF - Offutt Air Force Base

CURRENT METAR :
  • 170356Z AUTO 13004KT 10SM CLR 04/M01 A2989 RMK AO2 SLP133 T00371011 $

EXPIRED METARs :
  • 170256Z AUTO 00000KT 10SM OVC110 04/M03 A2989 RMK AO2 SLP134 T00361026 50000 $
  • 170156Z AUTO 15006KT 10SM BKN130 04/M03 A2988 RMK AO2 SLP132 T00441027 $

TAF TAF KOFF
Valid from the 17 at 02:00 until the 18 at 08:00 UTC


170200Z 1702/1808 VRB06KT 9999 BKN100 QNH2988INS
BECMG 1711/1712 VRB06KT 8000 BR BKN020 620205 QNH2979INS
BECMG 1715/1716 18012KT 8000 -RA OVC020 620205 QNH2980INS
BECMG 1721/1722 32020G25KT 9999 NSW BKN030 620304 QNH2985INS TX07/1720Z TN02/1712Z



MET'MAP, your aeronautical weather chart ! - Copyright ORBIFLY December 2007 - Disclaimer

ORBIFLY MET'MAP TEAM :

Programming & Development : Alexandra Zaïnal
Concept & original design : Baudouin d'Aumeries
Assistance for programming : Marc-Olivier Méhu
Technical & hardware support : Manuel Goepfert

Contact : metmap@orbifly.com




SOURCES & CREDITS :

   NOAA       Earth
Advisory